Terminal Aerodrome Forecast
Issued by NWS

Home | Current Version | Previous Version | Text Only | Print | Product List | Glossary On
Versions: 1 2 3 4 5 6 7 8 9 10 11 12 13 14 15 16 17 18 19 20 21 22 23 24 25 26 27
000
FTUS45 KCYS 290544 CCA
TAFRWL
TAF COR
KRWL 290544Z 2906/3006 25015G25KT P6SM FEW250
     FM291700 22028G40KT P6SM FEW250
     FM300200 24020G30KT P6SM BKN220=

USA.gov is the U.S. government's official web portal to all federal, state and local government web resources and services.